Forside
METAR-TAF:

METAR-TAF

Lufthavne :

Murray, Kentucky, USA

Breddekreds: 36-39-52N, længdekreds: 088-22-22W, højde: 176 m

Aktuelle vejr

Denne rapport blev lavet for 17 minutter siden, kl. 15:35 UTC
Vind 3 kt fra nordnordvest
Temperatur 15°C
Fugtighed 51%
Tryk 1025 hPa
Sigt: 16.1 km
skyfri

METAR: KCEY 231535Z AUTO 34003KT 10SM CLR 15/05 A3026 RMK AO1

Tid: 10:52 (15:52 UTC)


TAF: fraværende

Vejrobservationer og prognoser fra mere end 4000 lufthavne (METAR og TAF).

De gule og røde prikker repræsenterer de meteorologiske stationer.

Flyt musen over at se navnet på stationen.

Så klik over at se vejr observationer og prognoser.

At skifte det kort: Klik på de grønne knapper med et sort kors for at zoome ind; på den grønne knap med en bindestreg for at zoome ud; eller på de grønne pile for tilstødende kort.


METAR-TAF: